»·PEaware :: N1416W KBUR-KLAS

N1416W :: KBUR-KLAS

FLIGHT INFORMATION

Flight Status: Arrived
Operator: Privately registered:
United States
More flights under this callsign
Pilot: Dave S. (38094)
Aircraft: CIRRUS SR-22
(SR22)
More flights by this aircraft type
Origin: KBUR Bob Hope-Burbank
United States
Destination: KLAS Harry Reid Intl
United States
More flights between these airports :: More routes between these airports
Route: VNY3 DAG CRESO5
File this flight plan on PilotEdge
Remarks:
Altitude:
(Current/Filed)
11,000ft
Speed:
(Current/Filed)
150kts
Departed: 02-Oct-22 11:10 AM
Arrived: 02-Oct-22 12:35 PM
Distance/Time
Traveled:
194nm/1:25
Distance/Time
To Go:
Arrived

Flight Plot

Page will automatically refresh every two minutes.

Flight plan parsing failed; only flown route is shown


Map Options




Map Legend


Flown Route
Filed Route
Departure Airport
Arrival Airport
Navaid (VOR, NDB)
Fix

Horizontal Profiles

Position Reports

Time Latitude Longitude Heading Altitude Ground
Speed
02-Oct-22 11:00 34.202253 -118.359319 85 727ft 0kts
02-Oct-22 11:03 34.202253 -118.359319 85 727ft 0kts
02-Oct-22 11:04 34.202253 -118.359319 85 727ft 0kts
02-Oct-22 11:04 34.202253 -118.359319 85 727ft 0kts
02-Oct-22 11:05 34.202253 -118.359319 85 727ft 0kts
02-Oct-22 11:06 34.204033 -118.359327 349 735ft 17kts
02-Oct-22 11:07 34.209235 -118.360761 348 767ft 20kts
02-Oct-22 11:09 34.211958 -118.361315 52 781ft 0kts
02-Oct-22 11:09 34.210291 -118.359927 168 773ft 64kts
02-Oct-22 11:10 34.183764 -118.360110 225 2260ft 95kts
02-Oct-22 11:11 34.162115 -118.385624 224 3651ft 124kts
02-Oct-22 11:12 34.135829 -118.423245 268 4010ft 172kts
02-Oct-22 11:13 34.165473 -118.443046 351 5764ft 120kts
02-Oct-22 11:14 34.198648 -118.448499 351 7122ft 121kts
02-Oct-22 11:15 34.232502 -118.454026 351 8346ft 124kts
02-Oct-22 11:16 34.266980 -118.459663 351 9384ft 126kts
02-Oct-22 11:17 34.302052 -118.460699 11 10216ft 128kts
02-Oct-22 11:18 34.337087 -118.451524 11 10832ft 130kts
02-Oct-22 11:19 34.375539 -118.441527 11 11112ft 160kts
02-Oct-22 11:20 34.411136 -118.410825 68 11108ft 179kts
02-Oct-22 11:21 34.439666 -118.361424 42 11048ft 185kts
02-Oct-22 11:22 34.476407 -118.318172 44 11034ft 183kts
02-Oct-22 11:23 34.508265 -118.268658 55 10795ft 190kts
02-Oct-22 11:24 34.535232 -118.216270 30 10875ft 176kts
02-Oct-22 11:25 34.566507 -118.172104 53 11021ft 176kts
02-Oct-22 11:26 34.595588 -118.123613 53 11026ft 178kts
02-Oct-22 11:27 34.624825 -118.074825 53 11027ft 178kts
02-Oct-22 11:28 34.636487 -118.017444 82 11032ft 178kts
02-Oct-22 11:29 34.643014 -117.958062 82 11032ft 177kts
02-Oct-22 11:30 34.649503 -117.898517 82 11031ft 177kts
02-Oct-22 11:31 34.655958 -117.839165 82 11030ft 177kts
02-Oct-22 11:32 34.662365 -117.779889 82 11025ft 176kts
02-Oct-22 11:33 34.674623 -117.722764 72 11022ft 175kts
02-Oct-22 11:34 34.689158 -117.666164 72 11022ft 175kts
02-Oct-22 11:35 34.703631 -117.609662 72 11022ft 175kts
02-Oct-22 11:36 34.718129 -117.552962 72 11024ft 176kts
02-Oct-22 11:37 34.732635 -117.496086 72 11023ft 175kts
02-Oct-22 11:38 34.747082 -117.439352 72 11023ft 175kts
02-Oct-22 11:39 34.761437 -117.382855 72 11023ft 175kts
02-Oct-22 11:40 34.775813 -117.326112 72 11024ft 175kts
02-Oct-22 11:41 34.790154 -117.269378 72 11024ft 176kts
02-Oct-22 11:42 34.807733 -117.214085 66 11023ft 176kts
02-Oct-22 11:43 34.819991 -117.156468 66 11029ft 176kts
02-Oct-22 11:44 34.835005 -117.099715 73 11031ft 177kts
02-Oct-22 11:45 34.849156 -117.042426 73 11029ft 176kts
02-Oct-22 11:46 34.852907 -116.984489 73 11035ft 175kts
02-Oct-22 11:47 34.870570 -116.928472 69 11026ft 177kts
02-Oct-22 11:48 34.887195 -116.872215 73 11027ft 176kts
02-Oct-22 11:49 34.901676 -116.815261 72 11063ft 176kts
02-Oct-22 11:50 34.916311 -116.758369 72 11065ft 176kts
02-Oct-22 11:51 34.930926 -116.701460 72 11064ft 176kts
02-Oct-22 11:52 34.945504 -116.644502 72 11068ft 175kts
02-Oct-22 11:53 34.960018 -116.587746 72 11063ft 175kts
02-Oct-22 11:54 34.981802 -116.534761 61 11066ft 175kts
02-Oct-22 11:55 35.005066 -116.482428 61 11062ft 175kts
02-Oct-22 11:56 35.028360 -116.429982 61 11063ft 175kts
02-Oct-22 11:57 35.051661 -116.377411 61 11066ft 176kts
02-Oct-22 11:58 35.074904 -116.324901 61 11064ft 177kts
02-Oct-22 11:59 35.098335 -116.271903 61 11066ft 177kts
02-Oct-22 12:00 35.121654 -116.219045 61 11067ft 176kts
02-Oct-22 12:01 35.144878 -116.166333 61 11066ft 177kts
02-Oct-22 12:02 35.168298 -116.113098 61 11069ft 178kts
02-Oct-22 12:03 35.191545 -116.060169 61 11066ft 176kts
02-Oct-22 12:04 35.214818 -116.007092 61 11067ft 176kts
02-Oct-22 12:05 35.237900 -115.954383 61 11064ft 176kts
02-Oct-22 12:06 35.260992 -115.901558 61 11067ft 176kts
02-Oct-22 12:07 35.284120 -115.848560 61 11064ft 176kts
02-Oct-22 12:08 35.307218 -115.795586 61 11065ft 176kts
02-Oct-22 12:09 35.338700 -115.749701 47 11069ft 178kts
02-Oct-22 12:10 35.372286 -115.704995 47 11069ft 177kts
02-Oct-22 12:11 35.405744 -115.660375 47 10915ft 184kts
02-Oct-22 12:12 35.440996 -115.613260 47 10526ft 189kts
02-Oct-22 12:13 35.476869 -115.565245 47 10090ft 192kts
02-Oct-22 12:14 35.512040 -115.518097 47 9997ft 182kts
02-Oct-22 12:15 35.545859 -115.472757 47 9991ft 178kts
02-Oct-22 12:16 35.579278 -115.428094 47 10004ft 177kts
02-Oct-22 12:17 35.612430 -115.383309 47 10014ft 177kts
02-Oct-22 12:18 35.645730 -115.338536 47 10008ft 177kts
02-Oct-22 12:19 35.679114 -115.293496 47 10010ft 179kts
02-Oct-22 12:20 35.720418 -115.259995 21 9617ft 189kts
02-Oct-22 12:21 35.768402 -115.235998 21 8619ft 184kts
02-Oct-22 12:22 35.815022 -115.212692 21 7994ft 168kts
02-Oct-22 12:23 35.856812 -115.191932 21 8001ft 166kts
02-Oct-22 12:24 35.901228 -115.169932 21 7566ft 169kts
02-Oct-22 12:25 35.943728 -115.148704 21 6552ft 162kts
02-Oct-22 12:26 35.983798 -115.128710 20 5986ft 138kts
02-Oct-22 12:27 36.016856 -115.112367 21 5988ft 123kts
02-Oct-22 12:28 36.048073 -115.105169 310 5823ft 123kts
02-Oct-22 12:29 36.060463 -115.125260 85 5320ft 134kts
02-Oct-22 12:30 36.076277 -115.093762 9 4240ft 119kts
02-Oct-22 12:31 36.108400 -115.094367 336 3638ft 114kts
02-Oct-22 12:32 36.119755 -115.123197 283 3107ft 91kts
02-Oct-22 12:33 36.114084 -115.148391 201 2511ft 89kts
02-Oct-22 12:34 36.094307 -115.159520 211 2114ft 25kts
02-Oct-22 12:35 36.094306 -115.161070 293 2112ft 13kts

Navigation Log

Ident Type
Flight plan parsing failed, navigation log unavailable